sensor_id;sensor_type;location;lat;lon;timestamp;P1;durP1;ratioP1;P2;durP2;ratioP2
54515;SDS011;40422;45.892;4.738;2023-12-20T04:01:00;14.60;;;4.53;;
54515;SDS011;40422;45.892;4.738;2023-12-20T04:03:26;12.05;;;4.03;;
54515;SDS011;40422;45.892;4.738;2023-12-20T04:05:52;13.10;;;4.68;;
54515;SDS011;40422;45.892;4.738;2023-12-20T04:08:17;14.13;;;5.47;;
54515;SDS011;40422;45.892;4.738;2023-12-20T04:10:43;11.50;;;5.15;;
54515;SDS011;40422;45.892;4.738;2023-12-20T04:13:08;14.15;;;5.78;;
54515;SDS011;40422;45.892;4.738;2023-12-20T04:15:34;13.80;;;6.95;;
54515;SDS011;40422;45.892;4.738;2023-12-20T04:18:00;11.00;;;4.60;;
54515;SDS011;40422;45.892;4.738;2023-12-20T04:20:25;12.30;;;4.90;;
54515;SDS011;40422;45.892;4.738;2023-12-20T04:22:51;29.35;;;21.05;;
54515;SDS011;40422;45.892;4.738;2023-12-20T04:25:16;14.93;;;4.97;;
54515;SDS011;40422;45.892;4.738;2023-12-20T04:27:42;14.35;;;5.25;;
54515;SDS011;40422;45.892;4.738;2023-12-20T04:30:07;12.77;;;5.38;;
54515;SDS011;40422;45.892;4.738;2023-12-20T04:32:34;12.63;;;4.70;;
54515;SDS011;40422;45.892;4.738;2023-12-20T04:34:59;11.63;;;4.68;;
54515;SDS011;40422;45.892;4.738;2023-12-20T04:37:25;7.68;;;3.55;;
54515;SDS011;40422;45.892;4.738;2023-12-20T04:39:50;12.60;;;4.35;;
54515;SDS011;40422;45.892;4.738;2023-12-20T04:42:16;9.48;;;3.63;;
54515;SDS011;40422;45.892;4.738;2023-12-20T04:44:41;10.95;;;5.13;;
54515;SDS011;40422;45.892;4.738;2023-12-20T04:47:08;11.15;;;4.50;;
54515;SDS011;40422;45.892;4.738;2023-12-20T04:49:34;11.40;;;4.55;;
54515;SDS011;40422;45.892;4.738;2023-12-20T04:52:00;11.88;;;4.78;;
54515;SDS011;40422;45.892;4.738;2023-12-20T04:54:25;13.13;;;5.13;;
54515;SDS011;40422;45.892;4.738;2023-12-20T04:56:51;15.55;;;4.72;;
54515;SDS011;40422;45.892;4.738;2023-12-20T04:59:16;12.65;;;4.68;;
54515;SDS011;40422;45.892;4.738;2023-12-20T05:01:42;11.02;;;4.28;;
54515;SDS011;40422;45.892;4.738;2023-12-20T05:04:08;19.33;;;5.40;;
54515;SDS011;40422;45.892;4.738;2023-12-20T05:06:33;8.95;;;3.67;;
54515;SDS011;40422;45.892;4.738;2023-12-20T05:08:59;8.27;;;3.83;;
54515;SDS011;40422;45.892;4.738;2023-12-20T05:11:24;11.45;;;3.70;;
54515;SDS011;40422;45.892;4.738;2023-12-20T05:13:50;13.07;;;4.43;;
54515;SDS011;40422;45.892;4.738;2023-12-20T05:16:15;7.40;;;3.55;;
54515;SDS011;40422;45.892;4.738;2023-12-20T05:18:43;11.00;;;4.82;;
54515;SDS011;40422;45.892;4.738;2023-12-20T05:21:09;21.42;;;6.68;;
54515;SDS011;40422;45.892;4.738;2023-12-20T05:23:35;16.88;;;6.57;;
54515;SDS011;40422;45.892;4.738;2023-12-20T05:26:01;15.10;;;5.88;;
54515;SDS011;40422;45.892;4.738;2023-12-20T05:28:26;15.35;;;6.80;;
54515;SDS011;40422;45.892;4.738;2023-12-20T05:30:52;14.10;;;6.00;;
54515;SDS011;40422;45.892;4.738;2023-12-20T05:33:18;22.75;;;7.90;;
54515;SDS011;40422;45.892;4.738;2023-12-20T05:35:43;13.43;;;5.80;;
54515;SDS011;40422;45.892;4.738;2023-12-20T05:38:09;17.65;;;5.45;;
54515;SDS011;40422;45.892;4.738;2023-12-20T05:40:35;16.67;;;8.18;;
54515;SDS011;40422;45.892;4.738;2023-12-20T05:43:00;11.70;;;5.65;;
54515;SDS011;40422;45.892;4.738;2023-12-20T05:45:26;13.60;;;4.47;;
54515;SDS011;40422;45.892;4.738;2023-12-20T05:47:51;14.75;;;5.70;;
54515;SDS011;40422;45.892;4.738;2023-12-20T05:50:17;14.80;;;5.15;;
54515;SDS011;40422;45.892;4.738;2023-12-20T05:52:42;9.68;;;5.05;;
54515;SDS011;40422;45.892;4.738;2023-12-20T05:55:08;10.07;;;4.00;;
54515;SDS011;40422;45.892;4.738;2023-12-20T05:57:34;29.00;;;20.58;;
54515;SDS011;40422;45.892;4.738;2023-12-20T06:00:00;13.00;;;6.20;;
54515;SDS011;40422;45.892;4.738;2023-12-20T06:02:25;16.27;;;7.50;;
54515;SDS011;40422;45.892;4.738;2023-12-20T06:04:51;14.82;;;4.45;;
54515;SDS011;40422;45.892;4.738;2023-12-20T06:07:17;11.52;;;4.90;;
54515;SDS011;40422;45.892;4.738;2023-12-20T06:09:42;9.38;;;4.45;;
54515;SDS011;40422;45.892;4.738;2023-12-20T06:12:08;20.17;;;7.72;;
54515;SDS011;40422;45.892;4.738;2023-12-20T06:14:34;15.88;;;6.13;;
54515;SDS011;40422;45.892;4.738;2023-12-20T06:17:00;16.92;;;5.90;;
54515;SDS011;40422;45.892;4.738;2023-12-20T06:19:26;11.57;;;4.70;;
54515;SDS011;40422;45.892;4.738;2023-12-20T06:21:52;16.58;;;6.88;;
54515;SDS011;40422;45.892;4.738;2023-12-20T06:24:18;19.65;;;7.68;;
54515;SDS011;40422;45.892;4.738;2023-12-20T06:26:44;10.10;;;3.85;;
54515;SDS011;40422;45.892;4.738;2023-12-20T06:29:09;17.02;;;8.32;;
54515;SDS011;40422;45.892;4.738;2023-12-20T06:31:35;11.18;;;5.18;;
54515;SDS011;40422;45.892;4.738;2023-12-20T06:34:00;13.93;;;5.63;;
54515;SDS011;40422;45.892;4.738;2023-12-20T06:36:26;10.77;;;4.88;;
54515;SDS011;40422;45.892;4.738;2023-12-20T06:38:52;13.73;;;5.75;;
54515;SDS011;40422;45.892;4.738;2023-12-20T06:41:18;22.10;;;4.90;;
54515;SDS011;40422;45.892;4.738;2023-12-20T06:43:43;15.30;;;5.22;;
54515;SDS011;40422;45.892;4.738;2023-12-20T06:46:09;16.77;;;4.88;;
54515;SDS011;40422;45.892;4.738;2023-12-20T06:48:35;11.35;;;4.22;;
54515;SDS011;40422;45.892;4.738;2023-12-20T06:51:00;17.08;;;7.90;;
54515;SDS011;40422;45.892;4.738;2023-12-20T06:53:28;10.63;;;4.00;;
54515;SDS011;40422;45.892;4.738;2023-12-20T06:55:54;17.00;;;6.60;;
54515;SDS011;40422;45.892;4.738;2023-12-20T06:58:21;18.38;;;5.95;;
54515;SDS011;40422;45.892;4.738;2023-12-20T07:00:47;15.38;;;5.40;;
54515;SDS011;40422;45.892;4.738;2023-12-20T07:03:13;18.95;;;6.07;;
54515;SDS011;40422;45.892;4.738;2023-12-20T07:05:38;13.15;;;5.07;;
54515;SDS011;40422;45.892;4.738;2023-12-20T07:08:04;11.55;;;4.40;;
54515;SDS011;40422;45.892;4.738;2023-12-20T07:10:30;14.10;;;4.30;;
54515;SDS011;40422;45.892;4.738;2023-12-20T07:12:56;15.23;;;4.82;;
54515;SDS011;40422;45.892;4.738;2023-12-20T07:15:21;13.48;;;4.43;;
54515;SDS011;40422;45.892;4.738;2023-12-20T07:17:48;13.57;;;6.10;;
54515;SDS011;40422;45.892;4.738;2023-12-20T07:20:13;18.02;;;7.65;;
54515;SDS011;40422;45.892;4.738;2023-12-20T07:22:39;18.73;;;6.68;;
54515;SDS011;40422;45.892;4.738;2023-12-20T07:25:05;15.88;;;5.10;;
54515;SDS011;40422;45.892;4.738;2023-12-20T07:27:31;18.55;;;6.90;;
54515;SDS011;40422;45.892;4.738;2023-12-20T07:29:58;25.80;;;7.80;;
54515;SDS011;40422;45.892;4.738;2023-12-20T07:32:24;182.88;;;27.70;;
54515;SDS011;40422;45.892;4.738;2023-12-20T07:34:50;90.80;;;16.98;;
54515;SDS011;40422;45.892;4.738;2023-12-20T07:37:15;196.45;;;32.85;;
54515;SDS011;40422;45.892;4.738;2023-12-20T07:39:41;93.78;;;16.23;;
54515;SDS011;40422;45.892;4.738;2023-12-20T07:42:07;57.72;;;12.60;;
54515;SDS011;40422;45.892;4.738;2023-12-20T07:44:33;30.73;;;8.43;;
54515;SDS011;40422;45.892;4.738;2023-12-20T07:47:00;21.45;;;6.90;;
54515;SDS011;40422;45.892;4.738;2023-12-20T07:49:27;15.65;;;6.75;;
54515;SDS011;40422;45.892;4.738;2023-12-20T07:51:53;19.83;;;6.10;;
54515;SDS011;40422;45.892;4.738;2023-12-20T07:54:19;14.93;;;7.13;;
54515;SDS011;40422;45.892;4.738;2023-12-20T07:56:46;13.50;;;6.50;;
54515;SDS011;40422;45.892;4.738;2023-12-20T07:59:12;16.58;;;6.65;;
54515;SDS011;40422;45.892;4.738;2023-12-20T08:01:37;16.48;;;4.93;;
54515;SDS011;40422;45.892;4.738;2023-12-20T08:04:03;18.40;;;7.82;;
54515;SDS011;40422;45.892;4.738;2023-12-20T08:06:29;26.95;;;18.88;;
54515;SDS011;40422;45.892;4.738;2023-12-20T08:08:54;17.25;;;5.25;;
54515;SDS011;40422;45.892;4.738;2023-12-20T08:11:20;16.48;;;5.93;;
54515;SDS011;40422;45.892;4.738;2023-12-20T08:13:45;16.45;;;7.03;;
54515;SDS011;40422;45.892;4.738;2023-12-20T08:16:11;15.13;;;5.82;;
54515;SDS011;40422;45.892;4.738;2023-12-20T08:18:38;16.75;;;6.28;;
54515;SDS011;40422;45.892;4.738;2023-12-20T08:21:04;12.15;;;4.80;;
54515;SDS011;40422;45.892;4.738;2023-12-20T08:23:32;14.60;;;4.63;;
54515;SDS011;40422;45.892;4.738;2023-12-20T08:25:58;11.68;;;4.80;;
54515;SDS011;40422;45.892;4.738;2023-12-20T08:28:24;14.02;;;5.05;;
54515;SDS011;40422;45.892;4.738;2023-12-20T08:30:50;11.93;;;4.82;;
54515;SDS011;40422;45.892;4.738;2023-12-20T08:33:18;14.60;;;4.70;;
54515;SDS011;40422;45.892;4.738;2023-12-20T08:35:44;16.88;;;6.30;;
54515;SDS011;40422;45.892;4.738;2023-12-20T08:38:10;15.82;;;5.18;;
54515;SDS011;40422;45.892;4.738;2023-12-20T08:40:35;14.55;;;5.35;;
54515;SDS011;40422;45.892;4.738;2023-12-20T08:43:01;27.90;;;19.27;;
54515;SDS011;40422;45.892;4.738;2023-12-20T08:45:27;14.10;;;5.88;;
54515;SDS011;40422;45.892;4.738;2023-12-20T08:47:52;17.70;;;4.65;;
54515;SDS011;40422;45.892;4.738;2023-12-20T08:50:18;14.23;;;5.70;;
54515;SDS011;40422;45.892;4.738;2023-12-20T08:52:44;11.10;;;5.97;;
54515;SDS011;40422;45.892;4.738;2023-12-20T08:55:10;17.45;;;4.65;;
54515;SDS011;40422;45.892;4.738;2023-12-20T08:57:35;16.42;;;5.43;;
54515;SDS011;40422;45.892;4.738;2023-12-20T09:00:02;17.27;;;5.40;;
54515;SDS011;40422;45.892;4.738;2023-12-20T09:02:29;14.73;;;5.63;;
54515;SDS011;40422;45.892;4.738;2023-12-20T09:04:54;15.65;;;4.93;;
54515;SDS011;40422;45.892;4.738;2023-12-20T09:07:27;12.07;;;4.60;;
54515;SDS011;40422;45.892;4.738;2023-12-20T09:09:55;23.05;;;15.40;;
54515;SDS011;40422;45.892;4.738;2023-12-20T09:12:21;16.42;;;6.38;;
54515;SDS011;40422;45.892;4.738;2023-12-20T09:14:47;10.95;;;4.15;;
54515;SDS011;40422;45.892;4.738;2023-12-20T09:17:15;12.57;;;4.82;;
54515;SDS011;40422;45.892;4.738;2023-12-20T09:19:41;11.18;;;4.40;;
54515;SDS011;40422;45.892;4.738;2023-12-20T09:22:11;12.30;;;5.47;;
54515;SDS011;40422;45.892;4.738;2023-12-20T09:24:37;8.55;;;4.07;;
54515;SDS011;40422;45.892;4.738;2023-12-20T09:27:06;11.32;;;5.00;;
54515;SDS011;40422;45.892;4.738;2023-12-20T09:29:32;11.07;;;4.05;;
54515;SDS011;40422;45.892;4.738;2023-12-20T09:31:58;9.80;;;3.85;;
54515;SDS011;40422;45.892;4.738;2023-12-20T09:34:24;11.82;;;3.95;;
54515;SDS011;40422;45.892;4.738;2023-12-20T09:36:51;8.45;;;3.08;;
54515;SDS011;40422;45.892;4.738;2023-12-20T09:39:17;7.72;;;3.58;;
54515;SDS011;40422;45.892;4.738;2023-12-20T09:44:25;10.75;;;3.50;;
54515;SDS011;40422;45.892;4.738;2023-12-20T09:46:51;8.13;;;2.58;;
54515;SDS011;40422;45.892;4.738;2023-12-20T09:49:19;10.98;;;4.20;;
54515;SDS011;40422;45.892;4.738;2023-12-20T09:51:46;12.23;;;2.85;;
54515;SDS011;40422;45.892;4.738;2023-12-20T09:54:13;9.30;;;3.75;;
54515;SDS011;40422;45.892;4.738;2023-12-20T09:56:40;12.43;;;8.23;;
54515;SDS011;40422;45.892;4.738;2023-12-20T09:59:06;14.15;;;9.00;;
54515;SDS011;40422;45.892;4.738;2023-12-20T10:01:32;8.32;;;3.10;;
54515;SDS011;40422;45.892;4.738;2023-12-20T10:03:59;12.13;;;4.20;;
54515;SDS011;40422;45.892;4.738;2023-12-20T10:06:25;16.23;;;9.85;;
54515;SDS011;40422;45.892;4.738;2023-12-20T10:08:51;16.17;;;10.10;;
54515;SDS011;40422;45.892;4.738;2023-12-20T10:11:18;11.50;;;4.47;;
54515;SDS011;40422;45.892;4.738;2023-12-20T10:13:44;9.18;;;3.78;;
54515;SDS011;40422;45.892;4.738;2023-12-20T10:16:13;9.80;;;3.75;;
54515;SDS011;40422;45.892;4.738;2023-12-20T10:18:38;7.50;;;3.72;;
54515;SDS011;40422;45.892;4.738;2023-12-20T10:21:04;8.85;;;3.15;;
54515;SDS011;40422;45.892;4.738;2023-12-20T10:23:31;7.50;;;3.47;;
54515;SDS011;40422;45.892;4.738;2023-12-20T10:25:58;6.10;;;2.92;;
54515;SDS011;40422;45.892;4.738;2023-12-20T10:28:24;7.88;;;3.28;;
54515;SDS011;40422;45.892;4.738;2023-12-20T10:30:52;9.60;;;2.55;;
54515;SDS011;40422;45.892;4.738;2023-12-20T10:33:25;6.10;;;2.90;;
54515;SDS011;40422;45.892;4.738;2023-12-20T10:35:52;9.35;;;3.38;;
54515;SDS011;40422;45.892;4.738;2023-12-20T10:38:18;6.10;;;2.25;;
54515;SDS011;40422;45.892;4.738;2023-12-20T10:40:47;11.13;;;5.88;;
54515;SDS011;40422;45.892;4.738;2023-12-20T10:43:14;8.45;;;4.80;;
54515;SDS011;40422;45.892;4.738;2023-12-20T10:45:41;11.77;;;5.47;;
54515;SDS011;40422;45.892;4.738;2023-12-20T10:48:07;4.90;;;1.77;;
54515;SDS011;40422;45.892;4.738;2023-12-20T10:50:35;3.35;;;1.58;;
54515;SDS011;40422;45.892;4.738;2023-12-20T10:53:03;2.50;;;1.30;;
54515;SDS011;40422;45.892;4.738;2023-12-20T10:55:29;2.30;;;0.82;;
54515;SDS011;40422;45.892;4.738;2023-12-20T10:57:58;2.55;;;0.90;;
54515;SDS011;40422;45.892;4.738;2023-12-20T11:00:28;0.55;;;0.55;;
54515;SDS011;40422;45.892;4.738;2023-12-20T11:02:57;0.85;;;0.38;;
54515;SDS011;40422;45.892;4.738;2023-12-20T11:05:33;3.55;;;1.25;;
54515;SDS011;40422;45.892;4.738;2023-12-20T11:08:16;2.63;;;1.20;;
54515;SDS011;40422;45.892;4.738;2023-12-20T11:11:12;3.38;;;1.10;;
54515;SDS011;40422;45.892;4.738;2023-12-20T11:13:58;0.80;;;0.55;;
54515;SDS011;40422;45.892;4.738;2023-12-20T11:16:28;0.80;;;0.43;;
54515;SDS011;40422;45.892;4.738;2023-12-20T11:18:56;4.93;;;0.57;;
54515;SDS011;40422;45.892;4.738;2023-12-20T11:21:22;1.95;;;0.50;;
54515;SDS011;40422;45.892;4.738;2023-12-20T11:23:47;2.38;;;1.20;;
54515;SDS011;40422;45.892;4.738;2023-12-20T11:26:15;0.95;;;0.50;;
54515;SDS011;40422;45.892;4.738;2023-12-20T11:28:42;4.30;;;0.50;;
54515;SDS011;40422;45.892;4.738;2023-12-20T11:31:07;1.27;;;0.57;;
54515;SDS011;40422;45.892;4.738;2023-12-20T11:33:36;0.95;;;0.43;;
54515;SDS011;40422;45.892;4.738;2023-12-20T11:36:03;2.75;;;0.63;;
54515;SDS011;40422;45.892;4.738;2023-12-20T11:38:37;1.20;;;0.70;;
54515;SDS011;40422;45.892;4.738;2023-12-20T11:41:05;2.03;;;0.60;;
54515;SDS011;40422;45.892;4.738;2023-12-20T11:43:32;1.95;;;0.77;;
54515;SDS011;40422;45.892;4.738;2023-12-20T11:46:05;3.63;;;0.95;;
54515;SDS011;40422;45.892;4.738;2023-12-20T11:48:34;1.52;;;0.80;;
54515;SDS011;40422;45.892;4.738;2023-12-20T11:51:00;2.20;;;0.77;;
54515;SDS011;40422;45.892;4.738;2023-12-20T11:53:28;2.45;;;1.20;;
54515;SDS011;40422;45.892;4.738;2023-12-20T11:55:55;2.65;;;1.17;;
54515;SDS011;40422;45.892;4.738;2023-12-20T11:58:21;3.25;;;1.48;;
54515;SDS011;40422;45.892;4.738;2023-12-20T12:00:48;2.22;;;1.33;;
54515;SDS011;40422;45.892;4.738;2023-12-20T12:03:15;1.90;;;0.93;;
54515;SDS011;40422;45.892;4.738;2023-12-20T12:05:41;1.00;;;0.30;;
54515;SDS011;40422;45.892;4.738;2023-12-20T12:08:06;2.72;;;0.70;;
54515;SDS011;40422;45.892;4.738;2023-12-20T12:10:32;2.75;;;1.10;;
54515;SDS011;40422;45.892;4.738;2023-12-20T12:12:59;0.55;;;0.47;;
54515;SDS011;40422;45.892;4.738;2023-12-20T12:15:25;1.25;;;0.40;;
54515;SDS011;40422;45.892;4.738;2023-12-20T12:17:55;3.17;;;0.80;;
54515;SDS011;40422;45.892;4.738;2023-12-20T12:20:21;3.50;;;1.30;;
54515;SDS011;40422;45.892;4.738;2023-12-20T12:22:57;1.40;;;0.50;;
54515;SDS011;40422;45.892;4.738;2023-12-20T12:25:25;0.63;;;0.40;;
54515;SDS011;40422;45.892;4.738;2023-12-20T12:27:52;1.08;;;0.40;;
54515;SDS011;40422;45.892;4.738;2023-12-20T12:30:17;4.40;;;1.02;;
54515;SDS011;40422;45.892;4.738;2023-12-20T12:32:46;1.48;;;0.60;;
54515;SDS011;40422;45.892;4.738;2023-12-20T12:35:13;1.50;;;0.60;;
54515;SDS011;40422;45.892;4.738;2023-12-20T12:37:39;1.27;;;0.50;;
54515;SDS011;40422;45.892;4.738;2023-12-20T12:40:09;4.85;;;0.65;;
54515;SDS011;40422;45.892;4.738;2023-12-20T12:42:39;14.90;;;1.13;;
54515;SDS011;40422;45.892;4.738;2023-12-20T12:45:10;0.30;;;0.30;;
54515;SDS011;40422;45.892;4.738;2023-12-20T12:47:38;0.25;;;0.25;;
54515;SDS011;40422;45.892;4.738;2023-12-20T12:50:04;3.00;;;0.40;;
54515;SDS011;40422;45.892;4.738;2023-12-20T12:52:30;3.22;;;0.47;;
54515;SDS011;40422;45.892;4.738;2023-12-20T12:54:56;1.85;;;0.82;;
54515;SDS011;40422;45.892;4.738;2023-12-20T12:57:21;2.90;;;0.90;;
54515;SDS011;40422;45.892;4.738;2023-12-20T12:59:47;0.30;;;0.30;;
54515;SDS011;40422;45.892;4.738;2023-12-20T13:02:13;1.35;;;0.30;;
54515;SDS011;40422;45.892;4.738;2023-12-20T13:04:40;1.95;;;0.40;;
54515;SDS011;40422;45.892;4.738;2023-12-20T13:07:06;0.70;;;0.40;;
54515;SDS011;40422;45.892;4.738;2023-12-20T13:09:32;1.50;;;0.40;;
54515;SDS011;40422;45.892;4.738;2023-12-20T13:11:58;3.92;;;1.10;;
54515;SDS011;40422;45.892;4.738;2023-12-20T13:14:26;0.90;;;0.50;;
54515;SDS011;40422;45.892;4.738;2023-12-20T13:16:51;1.80;;;0.70;;
54515;SDS011;40422;45.892;4.738;2023-12-20T13:19:17;0.47;;;0.40;;
54515;SDS011;40422;45.892;4.738;2023-12-20T13:21:43;1.55;;;0.68;;
54515;SDS011;40422;45.892;4.738;2023-12-20T13:24:08;6.20;;;1.20;;
54515;SDS011;40422;45.892;4.738;2023-12-20T13:26:34;0.50;;;0.32;;
54515;SDS011;40422;45.892;4.738;2023-12-20T13:28:59;1.70;;;0.45;;
54515;SDS011;40422;45.892;4.738;2023-12-20T13:31:25;1.05;;;0.63;;
54515;SDS011;40422;45.892;4.738;2023-12-20T13:33:51;3.08;;;0.50;;
54515;SDS011;40422;45.892;4.738;2023-12-20T13:36:17;5.32;;;1.33;;
54515;SDS011;40422;45.892;4.738;2023-12-20T13:38:43;1.80;;;0.50;;
54515;SDS011;40422;45.892;4.738;2023-12-20T13:41:09;1.27;;;0.60;;
54515;SDS011;40422;45.892;4.738;2023-12-20T13:43:34;2.25;;;0.60;;
54515;SDS011;40422;45.892;4.738;2023-12-20T13:46:00;0.50;;;0.45;;
54515;SDS011;40422;45.892;4.738;2023-12-20T13:48:26;1.38;;;0.50;;
54515;SDS011;40422;45.892;4.738;2023-12-20T13:50:51;1.17;;;0.40;;
54515;SDS011;40422;45.892;4.738;2023-12-20T13:53:17;3.30;;;0.70;;
54515;SDS011;40422;45.892;4.738;2023-12-20T13:55:44;5.75;;;1.30;;
54515;SDS011;40422;45.892;4.738;2023-12-20T13:58:09;1.00;;;0.47;;
54515;SDS011;40422;45.892;4.738;2023-12-20T14:00:35;1.05;;;0.30;;
54515;SDS011;40422;45.892;4.738;2023-12-20T14:03:04;0.25;;;0.25;;
54515;SDS011;40422;45.892;4.738;2023-12-20T14:05:32;6.45;;;1.60;;
54515;SDS011;40422;45.892;4.738;2023-12-20T14:07:58;4.90;;;1.60;;
54515;SDS011;40422;45.892;4.738;2023-12-20T14:10:24;2.50;;;0.80;;
54515;SDS011;40422;45.892;4.738;2023-12-20T14:12:55;3.78;;;1.20;;
54515;SDS011;40422;45.892;4.738;2023-12-20T14:15:21;4.07;;;1.50;;
54515;SDS011;40422;45.892;4.738;2023-12-20T14:17:50;1.30;;;0.57;;
54515;SDS011;40422;45.892;4.738;2023-12-20T14:20:15;5.93;;;1.08;;
54515;SDS011;40422;45.892;4.738;2023-12-20T14:22:41;3.60;;;1.30;;
54515;SDS011;40422;45.892;4.738;2023-12-20T14:25:11;0.90;;;0.32;;
54515;SDS011;40422;45.892;4.738;2023-12-20T14:27:39;6.88;;;0.63;;
54515;SDS011;40422;45.892;4.738;2023-12-20T14:30:08;2.38;;;0.60;;
54515;SDS011;40422;45.892;4.738;2023-12-20T14:32:35;0.20;;;0.10;;
54515;SDS011;40422;45.892;4.738;2023-12-20T14:35:06;4.05;;;1.67;;
54515;SDS011;40422;45.892;4.738;2023-12-20T14:37:39;7.30;;;1.50;;
54515;SDS011;40422;45.892;4.738;2023-12-20T14:40:06;2.17;;;0.50;;
54515;SDS011;40422;45.892;4.738;2023-12-20T14:42:40;1.65;;;0.65;;
54515;SDS011;40422;45.892;4.738;2023-12-20T14:45:07;0.73;;;0.32;;
54515;SDS011;40422;45.892;4.738;2023-12-20T14:47:33;6.18;;;1.67;;
54515;SDS011;40422;45.892;4.738;2023-12-20T14:49:59;1.30;;;0.80;;
54515;SDS011;40422;45.892;4.738;2023-12-20T14:52:24;5.43;;;1.77;;
54515;SDS011;40422;45.892;4.738;2023-12-20T14:54:50;6.60;;;1.80;;
54515;SDS011;40422;45.892;4.738;2023-12-20T14:57:16;6.45;;;0.95;;
54515;SDS011;40422;45.892;4.738;2023-12-20T14:59:43;2.22;;;0.75;;
54515;SDS011;40422;45.892;4.738;2023-12-20T15:02:08;1.65;;;0.63;;
54515;SDS011;40422;45.892;4.738;2023-12-20T15:04:34;1.35;;;0.57;;
54515;SDS011;40422;45.892;4.738;2023-12-20T15:06:59;2.17;;;0.90;;
54515;SDS011;40422;45.892;4.738;2023-12-20T15:09:26;5.85;;;1.83;;
54515;SDS011;40422;45.892;4.738;2023-12-20T15:11:54;2.25;;;0.75;;
54515;SDS011;40422;45.892;4.738;2023-12-20T15:14:20;2.08;;;0.63;;
54515;SDS011;40422;45.892;4.738;2023-12-20T15:16:45;4.80;;;1.27;;
54515;SDS011;40422;45.892;4.738;2023-12-20T15:19:12;6.97;;;1.67;;
54515;SDS011;40422;45.892;4.738;2023-12-20T15:21:38;1.02;;;0.55;;
54515;SDS011;40422;45.892;4.738;2023-12-20T15:24:07;6.15;;;1.60;;
54515;SDS011;40422;45.892;4.738;2023-12-20T15:26:40;5.75;;;1.30;;
54515;SDS011;40422;45.892;4.738;2023-12-20T15:29:07;5.38;;;0.73;;
54515;SDS011;40422;45.892;4.738;2023-12-20T15:31:34;1.75;;;0.45;;
54515;SDS011;40422;45.892;4.738;2023-12-20T15:34:06;3.25;;;0.40;;
54515;SDS011;40422;45.892;4.738;2023-12-20T15:36:32;1.65;;;0.63;;
54515;SDS011;40422;45.892;4.738;2023-12-20T15:38:57;0.98;;;0.40;;
54515;SDS011;40422;45.892;4.738;2023-12-20T15:41:23;1.27;;;0.55;;
54515;SDS011;40422;45.892;4.738;2023-12-20T15:43:49;1.55;;;0.73;;
54515;SDS011;40422;45.892;4.738;2023-12-20T15:46:15;4.35;;;1.20;;
54515;SDS011;40422;45.892;4.738;2023-12-20T15:48:41;0.47;;;0.32;;
54515;SDS011;40422;45.892;4.738;2023-12-20T15:51:07;0.90;;;0.50;;
54515;SDS011;40422;45.892;4.738;2023-12-20T15:53:33;2.85;;;0.70;;
54515;SDS011;40422;45.892;4.738;2023-12-20T15:55:59;2.17;;;0.95;;
54515;SDS011;40422;45.892;4.738;2023-12-20T15:58:25;0.93;;;0.40;;
54515;SDS011;40422;45.892;4.738;2023-12-20T16:00:51;5.85;;;0.80;;
54515;SDS011;40422;45.892;4.738;2023-12-20T16:03:17;0.35;;;0.30;;
54515;SDS011;40422;45.892;4.738;2023-12-20T16:05:43;1.33;;;0.77;;
54515;SDS011;40422;45.892;4.738;2023-12-20T16:08:09;0.43;;;0.35;;
54515;SDS011;40422;45.892;4.738;2023-12-20T16:10:34;1.92;;;0.43;;
54515;SDS011;40422;45.892;4.738;2023-12-20T16:13:00;0.90;;;0.55;;
54515;SDS011;40422;45.892;4.738;2023-12-20T16:15:25;3.08;;;1.02;;
54515;SDS011;40422;45.892;4.738;2023-12-20T16:17:51;3.65;;;0.40;;
54515;SDS011;40422;45.892;4.738;2023-12-20T16:20:17;5.78;;;1.38;;
54515;SDS011;40422;45.892;4.738;2023-12-20T16:22:42;0.50;;;0.30;;
54515;SDS011;40422;45.892;4.738;2023-12-20T16:25:08;4.00;;;1.30;;
54515;SDS011;40422;45.892;4.738;2023-12-20T16:27:35;0.65;;;0.30;;
54515;SDS011;40422;45.892;4.738;2023-12-20T16:30:04;1.67;;;0.70;;
54515;SDS011;40422;45.892;4.738;2023-12-20T16:32:30;0.30;;;0.30;;
54515;SDS011;40422;45.892;4.738;2023-12-20T16:34:56;1.73;;;0.32;;
54515;SDS011;40422;45.892;4.738;2023-12-20T16:37:22;1.75;;;0.57;;
54515;SDS011;40422;45.892;4.738;2023-12-20T16:39:48;0.75;;;0.70;;
54515;SDS011;40422;45.892;4.738;2023-12-20T16:42:13;1.65;;;0.60;;
54515;SDS011;40422;45.892;4.738;2023-12-20T16:44:39;2.00;;;0.47;;
54515;SDS011;40422;45.892;4.738;2023-12-20T16:47:04;2.67;;;0.32;;
54515;SDS011;40422;45.892;4.738;2023-12-20T16:49:30;0.10;;;0.10;;
54515;SDS011;40422;45.892;4.738;2023-12-20T16:51:56;2.70;;;0.63;;
54515;SDS011;40422;45.892;4.738;2023-12-20T16:54:22;2.72;;;1.27;;
54515;SDS011;40422;45.892;4.738;2023-12-20T16:56:47;10.95;;;2.28;;
54515;SDS011;40422;45.892;4.738;2023-12-20T16:59:13;4.43;;;1.17;;
54515;SDS011;40422;45.892;4.738;2023-12-20T17:01:39;8.30;;;1.08;;
54515;SDS011;40422;45.892;4.738;2023-12-20T17:04:08;2.90;;;1.02;;
54515;SDS011;40422;45.892;4.738;2023-12-20T17:06:34;8.90;;;1.98;;
54515;SDS011;40422;45.892;4.738;2023-12-20T17:08:59;2.15;;;0.98;;
54515;SDS011;40422;45.892;4.738;2023-12-20T17:11:25;4.57;;;1.35;;
54515;SDS011;40422;45.892;4.738;2023-12-20T17:13:50;4.25;;;1.33;;
54515;SDS011;40422;45.892;4.738;2023-12-20T17:16:17;5.35;;;1.35;;
54515;SDS011;40422;45.892;4.738;2023-12-20T17:18:43;10.02;;;3.70;;
54515;SDS011;40422;45.892;4.738;2023-12-20T17:21:17;9.93;;;3.70;;
54515;SDS011;40422;45.892;4.738;2023-12-20T17:23:43;14.82;;;1.52;;
54515;SDS011;40422;45.892;4.738;2023-12-20T17:26:09;3.72;;;1.60;;
54515;SDS011;40422;45.892;4.738;2023-12-20T17:28:36;4.55;;;1.15;;
54515;SDS011;40422;45.892;4.738;2023-12-20T17:31:02;4.18;;;1.52;;
54515;SDS011;40422;45.892;4.738;2023-12-20T17:33:28;12.48;;;1.73;;
54515;SDS011;40422;45.892;4.738;2023-12-20T17:35:53;3.30;;;1.15;;
54515;SDS011;40422;45.892;4.738;2023-12-20T17:38:19;2.22;;;0.90;;
54515;SDS011;40422;45.892;4.738;2023-12-20T17:40:45;4.80;;;1.50;;
54515;SDS011;40422;45.892;4.738;2023-12-20T17:43:10;2.30;;;0.80;;
54515;SDS011;40422;45.892;4.738;2023-12-20T17:45:36;5.18;;;1.58;;
54515;SDS011;40422;45.892;4.738;2023-12-20T17:48:05;4.65;;;1.95;;
54515;SDS011;40422;45.892;4.738;2023-12-20T17:50:31;7.40;;;2.78;;
54515;SDS011;40422;45.892;4.738;2023-12-20T17:52:58;3.92;;;1.25;;
54515;SDS011;40422;45.892;4.738;2023-12-20T17:55:26;5.43;;;1.63;;
54515;SDS011;40422;45.892;4.738;2023-12-20T17:57:54;7.90;;;2.15;;
54515;SDS011;40422;45.892;4.738;2023-12-20T18:00:20;5.15;;;1.75;;
54515;SDS011;40422;45.892;4.738;2023-12-20T18:02:49;2.65;;;1.45;;
54515;SDS011;40422;45.892;4.738;2023-12-20T18:05:16;9.15;;;5.38;;
54515;SDS011;40422;45.892;4.738;2023-12-20T18:07:42;5.43;;;2.13;;
54515;SDS011;40422;45.892;4.738;2023-12-20T18:10:11;5.75;;;1.20;;
54515;SDS011;40422;45.892;4.738;2023-12-20T18:12:37;4.28;;;2.45;;
54515;SDS011;40422;45.892;4.738;2023-12-20T18:15:03;4.43;;;1.98;;
54515;SDS011;40422;45.892;4.738;2023-12-20T18:17:29;12.10;;;2.10;;
54515;SDS011;40422;45.892;4.738;2023-12-20T18:19:54;3.15;;;1.52;;
54515;SDS011;40422;45.892;4.738;2023-12-20T18:22:20;7.03;;;2.60;;
54515;SDS011;40422;45.892;4.738;2023-12-20T18:24:46;2.92;;;1.60;;
54515;SDS011;40422;45.892;4.738;2023-12-20T18:27:11;3.33;;;1.60;;
54515;SDS011;40422;45.892;4.738;2023-12-20T18:29:37;6.40;;;1.88;;
54515;SDS011;40422;45.892;4.738;2023-12-20T18:32:03;4.78;;;2.20;;
54515;SDS011;40422;45.892;4.738;2023-12-20T18:34:28;2.78;;;1.50;;
54515;SDS011;40422;45.892;4.738;2023-12-20T18:36:54;7.43;;;2.72;;
54515;SDS011;40422;45.892;4.738;2023-12-20T18:39:23;7.28;;;2.38;;